createdAt,value
2022-08-27T00:01:29.387Z,46.34
2022-08-27T00:04:35.362Z,46.25
2022-08-27T00:07:46.875Z,46.48
2022-08-27T00:10:52.600Z,46.68
2022-08-27T00:14:00.942Z,47.12
2022-08-27T00:17:11.297Z,47.19
2022-08-27T00:20:22.105Z,47.31
2022-08-27T00:23:27.963Z,47.05
2022-08-27T00:26:34.253Z,46.98
2022-08-27T00:29:42.482Z,46.93
2022-08-27T00:32:50.732Z,47.05
2022-08-27T00:35:57.352Z,47.55
2022-08-27T00:39:04.995Z,47.98
2022-08-27T00:42:11.514Z,47.89
2022-08-27T00:45:27.294Z,48.01
2022-08-27T00:48:40.288Z,48.49
2022-08-27T00:51:51.251Z,48.17
2022-08-27T00:55:08.903Z,48.42
2022-08-27T00:58:24.145Z,48.81
2022-08-27T01:01:57.400Z,49.13
2022-08-27T01:05:22.470Z,49.03
2022-08-27T01:08:33.827Z,49.09
2022-08-27T01:11:40.232Z,48.65
2022-08-27T01:14:53.744Z,49.00
2022-08-27T01:18:07.168Z,48.77
2022-08-27T01:21:32.504Z,48.82
2022-08-27T01:24:47.060Z,50.09
2022-08-27T01:27:56.804Z,50.23
2022-08-27T01:31:02.543Z,50.24
2022-08-27T01:34:14.614Z,51.26
2022-08-27T01:37:23.951Z,53.41
2022-08-27T01:40:32.526Z,54.70
2022-08-27T01:43:39.378Z,55.56
2022-08-27T01:46:45.073Z,55.63
2022-08-27T01:49:52.394Z,55.54
2022-08-27T01:52:59.214Z,56.20
2022-08-27T01:56:07.971Z,56.48
2022-08-27T01:59:19.899Z,56.94
2022-08-27T02:02:29.754Z,56.27
2022-08-27T02:05:44.550Z,56.41
2022-08-27T02:08:51.799Z,56.27
2022-08-27T02:12:00.874Z,56.07
2022-08-27T02:15:14.252Z,56.19
2022-08-27T02:18:22.447Z,57.10
2022-08-27T02:21:28.704Z,58.65
2022-08-27T02:24:34.661Z,59.21
2022-08-27T02:27:44.272Z,59.53
2022-08-27T02:30:50.058Z,60.12
2022-08-27T02:33:58.512Z,60.32
2022-08-27T02:37:04.518Z,60.29
2022-08-27T02:40:12.909Z,60.36
2022-08-27T02:43:30.468Z,60.44
2022-08-27T02:46:37.330Z,60.06
2022-08-27T02:49:44.714Z,60.13
2022-08-27T02:52:50.886Z,59.97
2022-08-27T02:55:56.477Z,59.81
2022-08-27T02:59:07.875Z,60.19
2022-08-27T03:02:17.119Z,59.92
2022-08-27T03:05:24.148Z,60.49
2022-08-27T03:08:30.807Z,61.16
2022-08-27T03:11:57.026Z,61.22
2022-08-27T03:15:06.664Z,61.08
2022-08-27T03:18:22.197Z,61.82
2022-08-27T03:21:29.382Z,61.92
2022-08-27T03:24:38.636Z,62.16
2022-08-27T03:27:45.806Z,62.87
2022-08-27T03:30:58.751Z,62.98
2022-08-27T03:34:09.705Z,63.54
2022-08-27T03:37:15.358Z,63.90
2022-08-27T03:40:21.840Z,64.28
2022-08-27T03:43:28.908Z,63.63
2022-08-27T03:46:37.158Z,63.53
2022-08-27T03:49:43.705Z,63.80
2022-08-27T03:52:49.569Z,63.08
2022-08-27T03:55:55.185Z,62.09
2022-08-27T03:59:00.708Z,61.51
2022-08-27T04:02:16.600Z,61.58
2022-08-27T04:05:22.479Z,60.90
2022-08-27T04:08:30.976Z,60.88
2022-08-27T04:11:38.107Z,60.40
2022-08-27T04:14:43.683Z,60.10
2022-08-27T04:17:51.998Z,59.23
2022-08-27T04:20:58.181Z,58.95
2022-08-27T04:24:15.784Z,58.76
2022-08-27T04:27:25.898Z,58.93
2022-08-27T04:30:31.782Z,58.76
2022-08-27T04:33:43.082Z,57.74
2022-08-27T04:36:59.706Z,56.52
2022-08-27T04:40:13.033Z,56.58
2022-08-27T04:43:23.424Z,58.04
2022-08-27T04:46:32.969Z,59.76
2022-08-27T04:49:43.266Z,60.31
2022-08-27T04:52:49.040Z,61.24
2022-08-27T04:56:00.008Z,60.58
2022-08-27T04:59:20.124Z,60.29
2022-08-27T05:02:26.270Z,60.11
2022-08-27T05:05:42.627Z,59.10
2022-08-27T05:08:58.967Z,57.63
2022-08-27T05:12:08.319Z,56.15
2022-08-27T05:15:15.218Z,52.48
2022-08-27T05:18:21.036Z,50.02
2022-08-27T05:21:33.798Z,47.47
2022-08-27T05:24:39.532Z,48.99
2022-08-27T05:27:45.972Z,48.94
2022-08-27T05:31:05.228Z,48.45
2022-08-27T05:34:15.411Z,49.74
2022-08-27T05:37:25.094Z,50.65
2022-08-27T05:40:30.729Z,50.42
2022-08-27T05:43:36.824Z,48.97
2022-08-27T05:46:43.400Z,46.10
2022-08-27T05:49:49.244Z,44.91
2022-08-27T05:52:57.450Z,44.86
2022-08-27T05:56:03.104Z,42.93
2022-08-27T05:59:22.465Z,42.36
2022-08-27T06:02:32.025Z,40.31
2022-08-27T06:05:37.763Z,38.31
2022-08-27T06:08:48.398Z,38.29
2022-08-27T06:12:09.015Z,36.91
2022-08-27T06:15:21.492Z,36.15
2022-08-27T06:18:28.268Z,35.68
2022-08-27T06:21:34.919Z,35.76
2022-08-27T06:24:45.002Z,36.49
2022-08-27T06:27:50.542Z,36.61
2022-08-27T06:30:56.163Z,36.78
2022-08-27T06:34:15.286Z,37.00
2022-08-27T06:37:21.035Z,36.01
2022-08-27T06:40:52.509Z,37.04
2022-08-27T06:44:01.181Z,37.91
2022-08-27T06:47:18.061Z,38.55
2022-08-27T06:50:31.118Z,36.75
2022-08-27T06:53:36.642Z,35.96
2022-08-27T06:56:46.662Z,35.55
2022-08-27T06:59:52.321Z,36.44
2022-08-27T07:02:57.946Z,35.69
2022-08-27T07:06:18.318Z,34.19
2022-08-27T07:09:25.612Z,36.18
2022-08-27T07:12:33.823Z,35.87
2022-08-27T07:15:42.604Z,36.20
2022-08-27T07:18:49.831Z,38.50
2022-08-27T07:21:55.367Z,39.78
2022-08-27T07:25:12.676Z,37.62
2022-08-27T07:28:20.986Z,38.12
2022-08-27T07:31:28.226Z,37.82
2022-08-27T07:34:41.312Z,36.52
2022-08-27T07:37:47.336Z,38.43
2022-08-27T07:40:53.019Z,36.95
2022-08-27T07:44:16.033Z,37.79
2022-08-27T07:47:22.159Z,40.21
2022-08-27T07:50:30.266Z,39.33
2022-08-27T07:53:36.394Z,40.07
2022-08-27T07:56:42.197Z,37.93
2022-08-27T07:59:53.453Z,35.68
2022-08-27T08:02:59.045Z,35.75
2022-08-27T08:06:08.913Z,34.67
2022-08-27T08:09:14.592Z,34.19
2022-08-27T08:12:26.364Z,34.10
2022-08-27T08:15:36.167Z,33.48
2022-08-27T08:18:42.489Z,32.43
2022-08-27T08:21:48.072Z,31.08
2022-08-27T08:24:53.671Z,32.07
2022-08-27T08:28:00.428Z,32.77
2022-08-27T08:31:28.213Z,32.86
2022-08-27T08:34:40.484Z,32.28
2022-08-27T08:37:46.318Z,33.03
2022-08-27T08:40:55.644Z,33.73
2022-08-27T08:44:21.760Z,35.47
2022-08-27T08:47:36.256Z,36.01
2022-08-27T08:51:01.690Z,35.69
2022-08-27T08:54:16.965Z,34.79
2022-08-27T08:57:32.419Z,31.66
2022-08-27T09:00:40.714Z,34.28
2022-08-27T09:03:58.348Z,34.56
2022-08-27T09:07:12.794Z,34.82
2022-08-27T09:10:41.547Z,33.39
2022-08-27T09:13:55.080Z,32.81
2022-08-27T09:17:03.198Z,31.74
2022-08-27T09:20:25.599Z,31.96
2022-08-27T09:23:48.126Z,32.35
2022-08-27T09:26:54.729Z,33.36
2022-08-27T09:30:02.358Z,33.10
2022-08-27T09:33:08.765Z,32.30
2022-08-27T09:36:23.739Z,32.99
2022-08-27T09:39:39.075Z,34.12
2022-08-27T09:42:50.839Z,35.58
2022-08-27T09:46:01.502Z,36.19
2022-08-27T09:49:22.059Z,37.74
2022-08-27T09:52:40.770Z,37.02
2022-08-27T09:55:52.358Z,37.48
2022-08-27T09:59:28.486Z,35.11
2022-08-27T10:02:34.170Z,32.73
2022-08-27T10:05:47.790Z,33.00
2022-08-27T10:09:06.980Z,33.18
2022-08-27T10:12:24.749Z,32.67
2022-08-27T10:15:44.059Z,30.09
2022-08-27T10:19:14.973Z,30.84
2022-08-27T10:22:39.304Z,30.16
2022-08-27T10:26:08.270Z,30.39
2022-08-27T10:29:33.312Z,30.39
2022-08-27T10:32:58.958Z,31.28
2022-08-27T10:36:26.849Z,29.62
2022-08-27T10:39:58.954Z,28.53
2022-08-27T10:43:32.700Z,28.13
2022-08-27T10:47:15.248Z,28.58
2022-08-27T10:50:34.148Z,28.43
2022-08-27T10:53:54.461Z,27.73
2022-08-27T10:57:40.260Z,29.35
2022-08-27T11:01:16.212Z,26.35
2022-08-27T11:04:37.208Z,28.18
2022-08-27T11:07:56.553Z,27.89
2022-08-27T11:11:56.942Z,27.27
2022-08-27T11:14:52.665Z,28.52
2022-08-27T11:18:09.350Z,28.12
2022-08-27T11:21:35.801Z,28.37
2022-08-27T11:24:52.989Z,27.32
2022-08-27T11:28:03.457Z,28.12
2022-08-27T11:31:26.812Z,26.83
2022-08-27T11:34:49.439Z,27.02
2022-08-27T11:38:28.213Z,27.00
2022-08-27T11:42:08.235Z,26.70
2022-08-27T11:45:24.870Z,26.80
2022-08-27T11:48:34.635Z,27.07
2022-08-27T11:51:48.120Z,28.70
2022-08-27T11:55:11.835Z,29.18
2022-08-27T11:58:53.281Z,28.64
2022-08-27T12:02:12.838Z,27.49
2022-08-27T12:05:27.531Z,28.53
2022-08-27T12:08:39.524Z,26.88
2022-08-27T12:12:01.629Z,28.01
2022-08-27T12:15:18.077Z,28.24
2022-08-27T12:18:59.047Z,30.77
2022-08-27T12:22:54.161Z,29.32
2022-08-27T12:26:21.343Z,28.49
2022-08-27T12:29:37.153Z,28.76
2022-08-27T12:32:52.877Z,30.18
2022-08-27T12:36:10.998Z,30.82
2022-08-27T12:39:30.128Z,31.59
2022-08-27T12:42:38.374Z,32.15
2022-08-27T12:45:51.445Z,33.52
2022-08-27T12:49:10.100Z,34.26
2022-08-27T12:53:26.290Z,34.25
2022-08-27T12:56:57.973Z,35.93
2022-08-27T13:00:15.553Z,36.93
2022-08-27T13:03:35.968Z,36.75
2022-08-27T13:06:49.015Z,37.03
2022-08-27T13:09:57.382Z,37.30
2022-08-27T13:13:11.969Z,38.21
2022-08-27T13:16:22.677Z,39.43
2022-08-27T13:19:34.475Z,38.84
2022-08-27T13:22:44.766Z,39.77
2022-08-27T13:26:01.817Z,40.21
2022-08-27T13:29:11.630Z,41.20
2022-08-27T13:32:21.098Z,41.44
2022-08-27T13:35:33.326Z,41.99
2022-08-27T13:38:49.328Z,41.13
2022-08-27T13:41:57.158Z,39.96
2022-08-27T13:45:19.112Z,38.71
2022-08-27T13:48:30.274Z,38.38
2022-08-27T13:51:49.192Z,38.44
2022-08-27T13:55:06.071Z,38.45
2022-08-27T13:58:26.301Z,37.57
2022-08-27T14:01:34.129Z,38.66
2022-08-27T14:04:46.696Z,38.74
2022-08-27T14:07:58.981Z,38.69
2022-08-27T14:11:09.906Z,41.50
2022-08-27T14:14:17.101Z,42.27
2022-08-27T14:17:38.294Z,42.64
2022-08-27T14:20:51.596Z,43.64
2022-08-27T14:23:59.624Z,44.69
2022-08-27T14:27:13.553Z,44.33
2022-08-27T14:30:25.273Z,44.74
2022-08-27T14:33:35.502Z,44.25
2022-08-27T14:36:45.952Z,44.65
2022-08-27T14:39:51.687Z,44.22
2022-08-27T14:42:57.971Z,44.48
2022-08-27T14:46:12.091Z,45.37
2022-08-27T14:49:28.457Z,45.75
2022-08-27T14:52:36.614Z,45.68
2022-08-27T14:55:42.338Z,44.48
2022-08-27T14:58:55.902Z,44.30
2022-08-27T15:02:09.390Z,44.43
2022-08-27T15:05:26.991Z,43.33
2022-08-27T15:08:36.154Z,43.42
2022-08-27T15:11:42.674Z,42.79
2022-08-27T15:14:48.566Z,43.43
2022-08-27T15:17:57.914Z,42.83
2022-08-27T15:21:10.398Z,43.24
2022-08-27T15:24:31.373Z,42.95
2022-08-27T15:27:39.332Z,43.29
2022-08-27T15:30:46.836Z,43.63
2022-08-27T15:33:53.041Z,43.86
2022-08-27T15:37:00.127Z,43.69
2022-08-27T15:40:14.937Z,43.67
2022-08-27T15:43:27.066Z,44.43
2022-08-27T15:46:32.766Z,44.43
2022-08-27T15:49:38.406Z,44.05
2022-08-27T15:52:46.375Z,44.42
2022-08-27T15:55:56.685Z,44.34
2022-08-27T15:59:04.958Z,45.47
2022-08-27T16:02:25.593Z,46.14
2022-08-27T16:05:37.871Z,46.38
2022-08-27T16:08:44.419Z,47.05
2022-08-27T16:11:52.728Z,47.14
2022-08-27T16:14:58.929Z,46.96
2022-08-27T16:18:07.767Z,46.97
2022-08-27T16:21:17.594Z,46.44
2022-08-27T16:24:24.880Z,46.83
2022-08-27T16:27:36.260Z,46.90
2022-08-27T16:30:42.399Z,46.83
2022-08-27T16:33:48.084Z,46.85
2022-08-27T16:36:53.652Z,46.83
2022-08-27T16:39:59.296Z,47.50
2022-08-27T16:43:07.807Z,46.84
2022-08-27T16:46:13.627Z,47.88
2022-08-27T16:49:37.410Z,48.75
2022-08-27T16:52:42.920Z,48.74
2022-08-27T16:55:52.544Z,49.11
2022-08-27T16:59:07.419Z,49.45
2022-08-27T17:02:39.204Z,49.89
2022-08-27T17:05:44.876Z,49.70
2022-08-27T17:08:51.924Z,50.72
2022-08-27T17:12:08.532Z,50.93
2022-08-27T17:15:18.218Z,51.65
2022-08-27T17:18:31.868Z,51.50
2022-08-27T17:21:37.742Z,51.13
2022-08-27T17:24:44.369Z,51.54
2022-08-27T17:27:49.899Z,52.47
2022-08-27T17:30:59.397Z,52.95
2022-08-27T17:34:12.100Z,52.38
2022-08-27T17:37:18.875Z,52.30
2022-08-27T17:40:25.146Z,52.53
2022-08-27T17:43:31.514Z,53.24
2022-08-27T17:46:44.752Z,52.75
2022-08-27T17:49:50.340Z,52.69
2022-08-27T17:52:55.945Z,53.68
2022-08-27T17:56:01.670Z,54.25
2022-08-27T17:59:07.237Z,54.27
2022-08-27T18:02:23.639Z,53.91
2022-08-27T18:05:29.867Z,53.90
2022-08-27T18:08:35.486Z,53.92
2022-08-27T18:11:43.274Z,54.17
2022-08-27T18:15:11.388Z,54.12
2022-08-27T18:18:32.529Z,53.95
2022-08-27T18:21:46.212Z,53.25
2022-08-27T18:24:52.304Z,53.15
2022-08-27T18:28:09.091Z,53.31
2022-08-27T18:31:16.912Z,53.59
2022-08-27T18:34:25.130Z,52.79
2022-08-27T18:37:30.631Z,53.28
2022-08-27T18:40:42.430Z,53.86
2022-08-27T18:43:51.035Z,53.88
2022-08-27T18:46:56.664Z,53.79
2022-08-27T18:50:05.492Z,53.80
2022-08-27T18:53:12.975Z,54.25
2022-08-27T18:56:22.007Z,54.04
2022-08-27T18:59:27.694Z,53.21
2022-08-27T19:02:35.997Z,53.54
2022-08-27T19:05:48.430Z,52.83
2022-08-27T19:09:00.761Z,52.88
2022-08-27T19:12:07.293Z,52.65
2022-08-27T19:15:13.750Z,53.05
2022-08-27T19:18:20.773Z,53.66
2022-08-27T19:21:28.903Z,54.63
2022-08-27T19:24:37.471Z,55.07
2022-08-27T19:27:47.500Z,55.96
2022-08-27T19:30:53.141Z,55.83
2022-08-27T19:34:07.465Z,55.69
2022-08-27T19:37:26.156Z,57.97
2022-08-27T19:40:31.819Z,60.52
2022-08-27T19:43:37.475Z,61.33
2022-08-27T19:46:43.305Z,61.06
2022-08-27T19:49:49.954Z,61.25
2022-08-27T19:52:58.317Z,61.93
2022-08-27T19:56:03.945Z,62.33
2022-08-27T19:59:21.053Z,62.77
2022-08-27T20:02:28.242Z,62.52
2022-08-27T20:05:33.893Z,63.02
2022-08-27T20:08:42.127Z,63.47
2022-08-27T20:11:50.587Z,63.25
2022-08-27T20:14:56.345Z,63.35
2022-08-27T20:18:02.299Z,63.59
2022-08-27T20:21:08.053Z,63.63
2022-08-27T20:24:16.160Z,63.85
2022-08-27T20:27:22.064Z,63.82
2022-08-27T20:30:31.809Z,63.47
2022-08-27T20:33:43.513Z,63.42
2022-08-27T20:36:55.946Z,62.99
2022-08-27T20:40:17.611Z,63.24
2022-08-27T20:43:28.685Z,63.29
2022-08-27T20:46:34.696Z,63.32
2022-08-27T20:49:42.101Z,63.38
2022-08-27T20:52:49.922Z,62.89
2022-08-27T20:55:58.611Z,63.11
2022-08-27T20:59:22.817Z,62.79
2022-08-27T21:02:40.550Z,62.65
2022-08-27T21:05:48.570Z,62.47
2022-08-27T21:08:54.546Z,62.59
2022-08-27T21:12:04.849Z,62.19
2022-08-27T21:15:14.453Z,62.60
2022-08-27T21:18:21.455Z,63.28
2022-08-27T21:21:35.081Z,63.19
2022-08-27T21:24:40.703Z,63.87
2022-08-27T21:27:48.852Z,65.09
2022-08-27T21:30:54.436Z,65.34
2022-08-27T21:34:00.000Z,65.47
2022-08-27T21:37:06.444Z,65.04
2022-08-27T21:40:13.610Z,64.75
2022-08-27T21:43:22.190Z,64.55
2022-08-27T21:46:28.338Z,65.02
2022-08-27T21:49:36.168Z,65.00
2022-08-27T21:52:42.433Z,64.59
2022-08-27T21:55:49.545Z,64.20
2022-08-27T21:58:58.030Z,64.48
2022-08-27T22:02:18.090Z,65.52
2022-08-27T22:05:29.099Z,66.18
2022-08-27T22:08:34.650Z,66.36
2022-08-27T22:11:40.225Z,67.34
2022-08-27T22:14:48.514Z,68.26
2022-08-27T22:17:54.014Z,68.65
2022-08-27T22:21:00.324Z,69.30
2022-08-27T22:24:08.894Z,69.12
2022-08-27T22:27:14.652Z,70.10
2022-08-27T22:30:23.211Z,69.43
2022-08-27T22:33:30.197Z,68.79
2022-08-27T22:36:36.088Z,68.55
2022-08-27T22:39:41.661Z,68.21
2022-08-27T22:42:47.245Z,68.06
2022-08-27T22:45:55.582Z,68.55
2022-08-27T22:49:01.121Z,68.32
2022-08-27T22:52:07.120Z,68.01
2022-08-27T22:55:16.374Z,67.81
2022-08-27T22:58:24.451Z,67.83
2022-08-27T23:01:32.775Z,68.15
2022-08-27T23:04:54.614Z,68.87
2022-08-27T23:08:00.930Z,68.53
2022-08-27T23:11:07.111Z,68.04
2022-08-27T23:14:13.452Z,68.84
2022-08-27T23:17:24.176Z,68.31
2022-08-27T23:20:32.877Z,68.86
2022-08-27T23:23:39.738Z,68.54
2022-08-27T23:26:58.406Z,68.51
2022-08-27T23:30:08.243Z,67.99
2022-08-27T23:33:17.084Z,67.65
2022-08-27T23:36:23.188Z,68.91
2022-08-27T23:39:28.680Z,68.31
2022-08-27T23:42:34.880Z,67.94
2022-08-27T23:45:41.594Z,67.99
2022-08-27T23:48:49.786Z,67.83
2022-08-27T23:51:55.360Z,67.66
2022-08-27T23:55:01.013Z,67.42
2022-08-27T23:58:07.855Z,66.66
